sensor_id;sensor_type;location;lat;lon;timestamp;temperature;humidity
20498;DHT22;10407;53.238;10.448;2023-06-26T00:00:48;22.00;99.90
20498;DHT22;10407;53.238;10.448;2023-06-26T00:03:16;22.10;99.90
20498;DHT22;10407;53.238;10.448;2023-06-26T00:05:43;22.20;99.90
20498;DHT22;10407;53.238;10.448;2023-06-26T00:08:11;22.20;99.90
20498;DHT22;10407;53.238;10.448;2023-06-26T00:10:38;22.00;99.90
20498;DHT22;10407;53.238;10.448;2023-06-26T00:13:06;21.90;99.90
20498;DHT22;10407;53.238;10.448;2023-06-26T00:15:33;21.90;99.90
20498;DHT22;10407;53.238;10.448;2023-06-26T00:18:01;22.00;99.90
20498;DHT22;10407;53.238;10.448;2023-06-26T00:20:30;21.60;99.90
20498;DHT22;10407;53.238;10.448;2023-06-26T00:22:59;21.60;99.90
20498;DHT22;10407;53.238;10.448;2023-06-26T00:25:27;21.80;99.90
20498;DHT22;10407;53.238;10.448;2023-06-26T00:27:54;21.90;99.90
20498;DHT22;10407;53.238;10.448;2023-06-26T00:30:22;21.80;99.90
20498;DHT22;10407;53.238;10.448;2023-06-26T00:36:12;21.80;99.90
20498;DHT22;10407;53.238;10.448;2023-06-26T00:38:39;21.80;99.90
20498;DHT22;10407;53.238;10.448;2023-06-26T00:41:07;21.90;99.90
20498;DHT22;10407;53.238;10.448;2023-06-26T00:43:36;22.00;99.90
20498;DHT22;10407;53.238;10.448;2023-06-26T00:46:04;21.70;99.90
20498;DHT22;10407;53.238;10.448;2023-06-26T00:48:32;21.50;99.90
20498;DHT22;10407;53.238;10.448;2023-06-26T00:50:59;21.40;99.90
20498;DHT22;10407;53.238;10.448;2023-06-26T00:53:28;21.40;99.90
20498;DHT22;10407;53.238;10.448;2023-06-26T00:55:56;21.20;99.90
20498;DHT22;10407;53.238;10.448;2023-06-26T00:58:24;21.40;99.90
20498;DHT22;10407;53.238;10.448;2023-06-26T01:04:14;21.70;99.90
20498;DHT22;10407;53.238;10.448;2023-06-26T01:06:46;21.50;99.90
20498;DHT22;10407;53.238;10.448;2023-06-26T01:09:19;21.50;99.90
20498;DHT22;10407;53.238;10.448;2023-06-26T01:11:47;21.50;99.90
20498;DHT22;10407;53.238;10.448;2023-06-26T01:14:14;21.50;99.90
20498;DHT22;10407;53.238;10.448;2023-06-26T01:16:43;21.20;99.90
20498;DHT22;10407;53.238;10.448;2023-06-26T01:19:24;21.20;99.90
20498;DHT22;10407;53.238;10.448;2023-06-26T01:22:17;21.50;99.90
20498;DHT22;10407;53.238;10.448;2023-06-26T01:24:56;21.60;99.90
20498;DHT22;10407;53.238;10.448;2023-06-26T01:27:25;21.50;99.90
20498;DHT22;10407;53.238;10.448;2023-06-26T01:29:54;21.60;99.90
20498;DHT22;10407;53.238;10.448;2023-06-26T01:32:22;21.50;99.90
20498;DHT22;10407;53.238;10.448;2023-06-26T01:34:50;21.60;99.90
20498;DHT22;10407;53.238;10.448;2023-06-26T01:37:18;21.50;99.90
20498;DHT22;10407;53.238;10.448;2023-06-26T01:39:45;21.40;99.90
20498;DHT22;10407;53.238;10.448;2023-06-26T01:42:13;21.40;99.90
20498;DHT22;10407;53.238;10.448;2023-06-26T01:44:44;21.30;99.90
20498;DHT22;10407;53.238;10.448;2023-06-26T01:47:14;21.30;99.90
20498;DHT22;10407;53.238;10.448;2023-06-26T01:50:02;21.30;99.90
20498;DHT22;10407;53.238;10.448;2023-06-26T01:55:28;21.40;99.90
20498;DHT22;10407;53.238;10.448;2023-06-26T01:57:57;21.30;99.90
20498;DHT22;10407;53.238;10.448;2023-06-26T02:00:26;21.40;99.90
20498;DHT22;10407;53.238;10.448;2023-06-26T02:02:54;21.30;99.90
20498;DHT22;10407;53.238;10.448;2023-06-26T02:05:21;21.20;99.90
20498;DHT22;10407;53.238;10.448;2023-06-26T02:07:50;21.10;99.90
20498;DHT22;10407;53.238;10.448;2023-06-26T02:10:18;21.20;99.90
20498;DHT22;10407;53.238;10.448;2023-06-26T02:12:45;21.20;99.90
20498;DHT22;10407;53.238;10.448;2023-06-26T02:15:13;21.10;99.90
20498;DHT22;10407;53.238;10.448;2023-06-26T02:17:41;21.10;99.90
20498;DHT22;10407;53.238;10.448;2023-06-26T02:20:08;21.00;99.90
20498;DHT22;10407;53.238;10.448;2023-06-26T02:22:37;20.90;99.90
20498;DHT22;10407;53.238;10.448;2023-06-26T02:25:05;21.00;99.90
20498;DHT22;10407;53.238;10.448;2023-06-26T02:27:32;21.20;99.90
20498;DHT22;10407;53.238;10.448;2023-06-26T02:30:00;21.10;99.90
20498;DHT22;10407;53.238;10.448;2023-06-26T02:32:28;21.30;99.90
20498;DHT22;10407;53.238;10.448;2023-06-26T02:34:55;21.30;99.90
20498;DHT22;10407;53.238;10.448;2023-06-26T02:37:23;21.40;99.90
20498;DHT22;10407;53.238;10.448;2023-06-26T02:39:50;21.50;99.90
20498;DHT22;10407;53.238;10.448;2023-06-26T02:42:18;21.40;99.90
20498;DHT22;10407;53.238;10.448;2023-06-26T02:44:45;21.30;99.90
20498;DHT22;10407;53.238;10.448;2023-06-26T02:47:13;21.40;99.90
20498;DHT22;10407;53.238;10.448;2023-06-26T02:49:40;21.30;99.90
20498;DHT22;10407;53.238;10.448;2023-06-26T02:52:08;21.10;99.90
20498;DHT22;10407;53.238;10.448;2023-06-26T02:54:35;21.20;99.90
20498;DHT22;10407;53.238;10.448;2023-06-26T02:57:03;21.30;99.90
20498;DHT22;10407;53.238;10.448;2023-06-26T02:59:30;20.90;99.90
20498;DHT22;10407;53.238;10.448;2023-06-26T03:01:58;20.50;99.90
20498;DHT22;10407;53.238;10.448;2023-06-26T03:04:25;20.80;99.90
20498;DHT22;10407;53.238;10.448;2023-06-26T03:06:53;21.00;99.90
20498;DHT22;10407;53.238;10.448;2023-06-26T03:09:20;21.10;99.90
20498;DHT22;10407;53.238;10.448;2023-06-26T03:11:48;21.30;99.90
20498;DHT22;10407;53.238;10.448;2023-06-26T03:14:15;21.40;99.90
20498;DHT22;10407;53.238;10.448;2023-06-26T03:16:43;21.50;99.90
20498;DHT22;10407;53.238;10.448;2023-06-26T03:19:11;21.50;99.90
20498;DHT22;10407;53.238;10.448;2023-06-26T03:21:38;21.40;99.90
20498;DHT22;10407;53.238;10.448;2023-06-26T03:24:06;21.30;99.90
20498;DHT22;10407;53.238;10.448;2023-06-26T03:26:33;21.40;99.90
20498;DHT22;10407;53.238;10.448;2023-06-26T03:29:01;21.30;99.90
20498;DHT22;10407;53.238;10.448;2023-06-26T03:31:29;21.40;99.90
20498;DHT22;10407;53.238;10.448;2023-06-26T03:33:57;21.30;99.90
20498;DHT22;10407;53.238;10.448;2023-06-26T03:36:24;21.30;99.90
20498;DHT22;10407;53.238;10.448;2023-06-26T03:38:52;21.20;99.90
20498;DHT22;10407;53.238;10.448;2023-06-26T03:41:21;21.40;99.90
20498;DHT22;10407;53.238;10.448;2023-06-26T03:43:48;21.50;99.90
20498;DHT22;10407;53.238;10.448;2023-06-26T03:46:16;23.20;99.90
20498;DHT22;10407;53.238;10.448;2023-06-26T03:48:43;24.30;96.40
20498;DHT22;10407;53.238;10.448;2023-06-26T03:51:12;24.90;92.40
20498;DHT22;10407;53.238;10.448;2023-06-26T03:53:40;25.20;90.50
20498;DHT22;10407;53.238;10.448;2023-06-26T03:56:07;25.80;86.40
20498;DHT22;10407;53.238;10.448;2023-06-26T04:01:56;26.10;81.80
20498;DHT22;10407;53.238;10.448;2023-06-26T04:04:24;26.60;78.90
20498;DHT22;10407;53.238;10.448;2023-06-26T04:06:52;26.80;76.70
20498;DHT22;10407;53.238;10.448;2023-06-26T04:09:19;27.40;72.60
20498;DHT22;10407;53.238;10.448;2023-06-26T04:11:47;27.20;70.50
20498;DHT22;10407;53.238;10.448;2023-06-26T04:14:14;27.70;68.50
20498;DHT22;10407;53.238;10.448;2023-06-26T04:16:42;28.10;64.50
20498;DHT22;10407;53.238;10.448;2023-06-26T04:19:09;28.30;60.00
20498;DHT22;10407;53.238;10.448;2023-06-26T04:21:37;28.50;57.70
20498;DHT22;10407;53.238;10.448;2023-06-26T04:24:05;29.00;54.60
20498;DHT22;10407;53.238;10.448;2023-06-26T04:26:32;28.80;54.80
20498;DHT22;10407;53.238;10.448;2023-06-26T04:29:00;29.00;53.30
20498;DHT22;10407;53.238;10.448;2023-06-26T04:31:28;29.40;51.70
20498;DHT22;10407;53.238;10.448;2023-06-26T04:33:55;29.60;48.80
20498;DHT22;10407;53.238;10.448;2023-06-26T04:36:24;29.90;46.50
20498;DHT22;10407;53.238;10.448;2023-06-26T04:38:54;29.80;46.20
20498;DHT22;10407;53.238;10.448;2023-06-26T04:41:22;30.20;44.30
20498;DHT22;10407;53.238;10.448;2023-06-26T04:43:49;30.60;40.30
20498;DHT22;10407;53.238;10.448;2023-06-26T04:46:17;30.70;39.50
20498;DHT22;10407;53.238;10.448;2023-06-26T04:48:44;31.00;37.20
20498;DHT22;10407;53.238;10.448;2023-06-26T04:51:12;31.10;35.60
20498;DHT22;10407;53.238;10.448;2023-06-26T04:53:39;31.00;33.50
20498;DHT22;10407;53.238;10.448;2023-06-26T04:56:07;31.10;33.50
20498;DHT22;10407;53.238;10.448;2023-06-26T04:58:35;31.20;32.60
20498;DHT22;10407;53.238;10.448;2023-06-26T05:01:03;31.40;31.60
20498;DHT22;10407;53.238;10.448;2023-06-26T05:03:32;31.40;30.50
20498;DHT22;10407;53.238;10.448;2023-06-26T05:06:01;31.70;28.90
20498;DHT22;10407;53.238;10.448;2023-06-26T05:08:29;32.10;28.30
20498;DHT22;10407;53.238;10.448;2023-06-26T05:10:56;32.20;27.20
20498;DHT22;10407;53.238;10.448;2023-06-26T05:13:27;31.90;26.80
20498;DHT22;10407;53.238;10.448;2023-06-26T05:15:54;31.80;26.30
20498;DHT22;10407;53.238;10.448;2023-06-26T05:18:22;32.20;26.00
20498;DHT22;10407;53.238;10.448;2023-06-26T05:20:50;31.80;25.90
20498;DHT22;10407;53.238;10.448;2023-06-26T05:23:17;32.40;24.60
20498;DHT22;10407;53.238;10.448;2023-06-26T05:25:46;32.30;21.90
20498;DHT22;10407;53.238;10.448;2023-06-26T05:28:14;32.40;23.20
20498;DHT22;10407;53.238;10.448;2023-06-26T05:30:42;32.60;22.50
20498;DHT22;10407;53.238;10.448;2023-06-26T05:33:11;32.90;21.30
20498;DHT22;10407;53.238;10.448;2023-06-26T05:35:39;33.10;19.80
20498;DHT22;10407;53.238;10.448;2023-06-26T05:38:07;32.90;20.00
20498;DHT22;10407;53.238;10.448;2023-06-26T05:40:36;32.80;19.70
20498;DHT22;10407;53.238;10.448;2023-06-26T05:43:04;32.50;19.20
20498;DHT22;10407;53.238;10.448;2023-06-26T05:45:32;32.50;19.50
20498;DHT22;10407;53.238;10.448;2023-06-26T05:47:59;33.00;18.90
20498;DHT22;10407;53.238;10.448;2023-06-26T05:50:28;33.80;17.50
20498;DHT22;10407;53.238;10.448;2023-06-26T05:52:56;33.50;17.20
20498;DHT22;10407;53.238;10.448;2023-06-26T05:55:25;33.70;16.40
20498;DHT22;10407;53.238;10.448;2023-06-26T05:57:52;33.20;16.90
20498;DHT22;10407;53.238;10.448;2023-06-26T06:00:21;33.30;17.10
20498;DHT22;10407;53.238;10.448;2023-06-26T06:02:48;32.30;18.00
20498;DHT22;10407;53.238;10.448;2023-06-26T06:05:18;32.20;18.40
20498;DHT22;10407;53.238;10.448;2023-06-26T06:07:45;32.20;18.80
20498;DHT22;10407;53.238;10.448;2023-06-26T06:10:13;32.50;19.70
20498;DHT22;10407;53.238;10.448;2023-06-26T06:12:40;32.00;19.50
20498;DHT22;10407;53.238;10.448;2023-06-26T06:15:08;32.20;20.00
20498;DHT22;10407;53.238;10.448;2023-06-26T06:17:35;31.70;20.10
20498;DHT22;10407;53.238;10.448;2023-06-26T06:20:03;31.50;19.70
20498;DHT22;10407;53.238;10.448;2023-06-26T06:22:31;31.10;20.30
20498;DHT22;10407;53.238;10.448;2023-06-26T06:24:58;32.10;19.70
20498;DHT22;10407;53.238;10.448;2023-06-26T06:27:27;32.40;18.80
20498;DHT22;10407;53.238;10.448;2023-06-26T06:29:55;31.90;18.20
20498;DHT22;10407;53.238;10.448;2023-06-26T06:32:22;31.60;18.30
20498;DHT22;10407;53.238;10.448;2023-06-26T06:34:50;32.10;18.30
20498;DHT22;10407;53.238;10.448;2023-06-26T06:37:17;32.20;17.60
20498;DHT22;10407;53.238;10.448;2023-06-26T06:39:45;32.10;18.90
20498;DHT22;10407;53.238;10.448;2023-06-26T06:42:13;32.10;19.80
20498;DHT22;10407;53.238;10.448;2023-06-26T06:44:40;30.70;20.70
20498;DHT22;10407;53.238;10.448;2023-06-26T06:47:08;29.40;24.10
20498;DHT22;10407;53.238;10.448;2023-06-26T06:49:35;29.20;25.00
20498;DHT22;10407;53.238;10.448;2023-06-26T06:52:03;28.80;26.40
20498;DHT22;10407;53.238;10.448;2023-06-26T06:54:30;29.60;26.40
20498;DHT22;10407;53.238;10.448;2023-06-26T06:56:58;30.20;25.10
20498;DHT22;10407;53.238;10.448;2023-06-26T06:59:26;30.20;23.80
20498;DHT22;10407;53.238;10.448;2023-06-26T07:01:53;31.00;22.20
20498;DHT22;10407;53.238;10.448;2023-06-26T07:04:21;31.30;22.60
20498;DHT22;10407;53.238;10.448;2023-06-26T07:06:48;31.20;22.30
20498;DHT22;10407;53.238;10.448;2023-06-26T07:09:16;31.20;23.40
20498;DHT22;10407;53.238;10.448;2023-06-26T07:11:43;29.90;25.40
20498;DHT22;10407;53.238;10.448;2023-06-26T07:14:11;29.80;25.70
20498;DHT22;10407;53.238;10.448;2023-06-26T07:16:38;30.00;26.00
20498;DHT22;10407;53.238;10.448;2023-06-26T07:19:06;30.50;25.90
20498;DHT22;10407;53.238;10.448;2023-06-26T07:21:33;31.00;26.80
20498;DHT22;10407;53.238;10.448;2023-06-26T07:24:01;31.30;25.20
20498;DHT22;10407;53.238;10.448;2023-06-26T07:26:28;31.40;24.80
20498;DHT22;10407;53.238;10.448;2023-06-26T07:28:56;31.00;24.90
20498;DHT22;10407;53.238;10.448;2023-06-26T07:31:23;30.70;25.40
20498;DHT22;10407;53.238;10.448;2023-06-26T07:33:51;30.70;25.30
20498;DHT22;10407;53.238;10.448;2023-06-26T07:36:18;30.90;25.60
20498;DHT22;10407;53.238;10.448;2023-06-26T07:38:46;31.50;25.10
20498;DHT22;10407;53.238;10.448;2023-06-26T07:41:13;31.20;25.60
20498;DHT22;10407;53.238;10.448;2023-06-26T07:43:41;31.10;25.20
20498;DHT22;10407;53.238;10.448;2023-06-26T07:46:08;31.10;24.40
20498;DHT22;10407;53.238;10.448;2023-06-26T07:48:36;31.00;24.40
20498;DHT22;10407;53.238;10.448;2023-06-26T07:51:03;30.90;25.30
20498;DHT22;10407;53.238;10.448;2023-06-26T07:53:31;31.20;25.60
20498;DHT22;10407;53.238;10.448;2023-06-26T07:55:58;31.40;25.90
20498;DHT22;10407;53.238;10.448;2023-06-26T07:58:26;31.20;25.60
20498;DHT22;10407;53.238;10.448;2023-06-26T08:00:53;31.60;24.80
20498;DHT22;10407;53.238;10.448;2023-06-26T08:03:21;31.40;24.00
20498;DHT22;10407;53.238;10.448;2023-06-26T08:05:50;31.20;25.20
20498;DHT22;10407;53.238;10.448;2023-06-26T08:08:17;31.50;25.10
20498;DHT22;10407;53.238;10.448;2023-06-26T08:10:45;31.20;24.80
20498;DHT22;10407;53.238;10.448;2023-06-26T08:13:12;30.60;25.90
20498;DHT22;10407;53.238;10.448;2023-06-26T08:15:40;30.80;25.10
20498;DHT22;10407;53.238;10.448;2023-06-26T08:18:07;30.70;26.00
20498;DHT22;10407;53.238;10.448;2023-06-26T08:20:35;30.80;25.70
20498;DHT22;10407;53.238;10.448;2023-06-26T08:23:04;31.20;25.70
20498;DHT22;10407;53.238;10.448;2023-06-26T08:25:32;31.10;24.80
20498;DHT22;10407;53.238;10.448;2023-06-26T08:27:59;31.50;24.70
20498;DHT22;10407;53.238;10.448;2023-06-26T08:30:27;31.60;25.90
20498;DHT22;10407;53.238;10.448;2023-06-26T08:32:55;32.30;23.40
20498;DHT22;10407;53.238;10.448;2023-06-26T08:35:23;32.40;22.00
20498;DHT22;10407;53.238;10.448;2023-06-26T08:37:51;32.40;21.90
20498;DHT22;10407;53.238;10.448;2023-06-26T08:40:21;32.40;22.00
20498;DHT22;10407;53.238;10.448;2023-06-26T08:42:49;32.00;20.80
20498;DHT22;10407;53.238;10.448;2023-06-26T08:45:18;32.20;21.30
20498;DHT22;10407;53.238;10.448;2023-06-26T08:47:47;32.60;20.80
20498;DHT22;10407;53.238;10.448;2023-06-26T08:50:16;32.80;20.10
20498;DHT22;10407;53.238;10.448;2023-06-26T08:52:56;32.90;20.30
20498;DHT22;10407;53.238;10.448;2023-06-26T08:55:26;32.20;18.90
20498;DHT22;10407;53.238;10.448;2023-06-26T08:57:55;32.40;20.20
20498;DHT22;10407;53.238;10.448;2023-06-26T09:00:23;31.60;19.70
20498;DHT22;10407;53.238;10.448;2023-06-26T09:02:51;31.20;22.00
20498;DHT22;10407;53.238;10.448;2023-06-26T09:05:18;31.20;21.00
20498;DHT22;10407;53.238;10.448;2023-06-26T09:07:46;31.40;22.50
20498;DHT22;10407;53.238;10.448;2023-06-26T09:10:14;32.00;22.40
20498;DHT22;10407;53.238;10.448;2023-06-26T09:12:42;32.40;20.90
20498;DHT22;10407;53.238;10.448;2023-06-26T09:15:13;32.30;20.50
20498;DHT22;10407;53.238;10.448;2023-06-26T09:17:44;32.50;20.40
20498;DHT22;10407;53.238;10.448;2023-06-26T09:20:11;32.80;19.90
20498;DHT22;10407;53.238;10.448;2023-06-26T09:22:47;32.40;19.80
20498;DHT22;10407;53.238;10.448;2023-06-26T09:25:15;32.10;20.50
20498;DHT22;10407;53.238;10.448;2023-06-26T09:27:44;32.00;21.40
20498;DHT22;10407;53.238;10.448;2023-06-26T09:30:16;32.20;21.10
20498;DHT22;10407;53.238;10.448;2023-06-26T09:32:42;32.30;22.00
20498;DHT22;10407;53.238;10.448;2023-06-26T09:35:10;32.00;21.40
20498;DHT22;10407;53.238;10.448;2023-06-26T09:37:38;31.80;22.40
20498;DHT22;10407;53.238;10.448;2023-06-26T09:40:06;32.40;21.50
20498;DHT22;10407;53.238;10.448;2023-06-26T09:42:34;32.50;21.70
20498;DHT22;10407;53.238;10.448;2023-06-26T09:45:03;32.50;21.10
20498;DHT22;10407;53.238;10.448;2023-06-26T09:47:34;33.00;20.60
20498;DHT22;10407;53.238;10.448;2023-06-26T09:50:02;33.00;20.20
20498;DHT22;10407;53.238;10.448;2023-06-26T09:52:30;32.80;19.40
20498;DHT22;10407;53.238;10.448;2023-06-26T09:55:08;32.20;21.00
20498;DHT22;10407;53.238;10.448;2023-06-26T09:57:36;31.70;21.00
20498;DHT22;10407;53.238;10.448;2023-06-26T10:00:04;32.30;20.80
20498;DHT22;10407;53.238;10.448;2023-06-26T10:02:33;32.60;20.50
20498;DHT22;10407;53.238;10.448;2023-06-26T10:05:01;31.80;21.20
20498;DHT22;10407;53.238;10.448;2023-06-26T10:07:29;31.70;21.60
20498;DHT22;10407;53.238;10.448;2023-06-26T10:09:58;31.30;22.10
20498;DHT22;10407;53.238;10.448;2023-06-26T10:12:31;31.10;23.40
20498;DHT22;10407;53.238;10.448;2023-06-26T10:15:02;31.10;23.60
20498;DHT22;10407;53.238;10.448;2023-06-26T10:17:34;31.00;24.10
20498;DHT22;10407;53.238;10.448;2023-06-26T10:20:03;31.10;24.20
20498;DHT22;10407;53.238;10.448;2023-06-26T10:22:39;30.80;24.30
20498;DHT22;10407;53.238;10.448;2023-06-26T10:25:05;31.10;24.30
20498;DHT22;10407;53.238;10.448;2023-06-26T10:27:36;31.70;23.70
20498;DHT22;10407;53.238;10.448;2023-06-26T10:30:06;32.30;22.60
20498;DHT22;10407;53.238;10.448;2023-06-26T10:36:26;31.90;22.50
20498;DHT22;10407;53.238;10.448;2023-06-26T10:38:47;31.70;22.60
20498;DHT22;10407;53.238;10.448;2023-06-26T10:41:04;31.10;23.40
20498;DHT22;10407;53.238;10.448;2023-06-26T10:43:30;30.50;24.70
20498;DHT22;10407;53.238;10.448;2023-06-26T10:45:58;30.10;25.60
20498;DHT22;10407;53.238;10.448;2023-06-26T10:48:28;29.70;26.50
20498;DHT22;10407;53.238;10.448;2023-06-26T10:50:56;29.30;27.80
20498;DHT22;10407;53.238;10.448;2023-06-26T10:53:25;28.80;28.90
20498;DHT22;10407;53.238;10.448;2023-06-26T10:56:00;28.60;30.10
20498;DHT22;10407;53.238;10.448;2023-06-26T10:58:41;28.30;31.90
20498;DHT22;10407;53.238;10.448;2023-06-26T11:01:23;27.70;35.30
20498;DHT22;10407;53.238;10.448;2023-06-26T11:06:30;26.80;78.30
20498;DHT22;10407;53.238;10.448;2023-06-26T11:14:26;25.40;99.90
20498;DHT22;10407;53.238;10.448;2023-06-26T11:16:56;25.70;99.90
20498;DHT22;10407;53.238;10.448;2023-06-26T11:19:27;25.40;99.90
20498;DHT22;10407;53.238;10.448;2023-06-26T11:22:05;25.80;99.90
20498;DHT22;10407;53.238;10.448;2023-06-26T11:24:33;25.60;99.90
20498;DHT22;10407;53.238;10.448;2023-06-26T11:27:01;25.70;99.90
20498;DHT22;10407;53.238;10.448;2023-06-26T11:29:30;25.80;99.90
20498;DHT22;10407;53.238;10.448;2023-06-26T11:32:03;25.20;99.90
20498;DHT22;10407;53.238;10.448;2023-06-26T11:34:32;25.30;99.90
20498;DHT22;10407;53.238;10.448;2023-06-26T11:37:00;25.80;99.90
20498;DHT22;10407;53.238;10.448;2023-06-26T11:39:28;26.00;99.90
20498;DHT22;10407;53.238;10.448;2023-06-26T11:41:55;26.30;99.90
20498;DHT22;10407;53.238;10.448;2023-06-26T11:44:24;26.80;99.90
20498;DHT22;10407;53.238;10.448;2023-06-26T11:46:54;26.90;99.90
20498;DHT22;10407;53.238;10.448;2023-06-26T11:49:22;27.20;98.80
20498;DHT22;10407;53.238;10.448;2023-06-26T11:51:52;27.20;98.70
20498;DHT22;10407;53.238;10.448;2023-06-26T11:54:27;27.10;95.90
20498;DHT22;10407;53.238;10.448;2023-06-26T11:56:57;27.10;97.00
20498;DHT22;10407;53.238;10.448;2023-06-26T11:59:33;26.80;98.90
20498;DHT22;10407;53.238;10.448;2023-06-26T12:02:11;26.70;99.90
20498;DHT22;10407;53.238;10.448;2023-06-26T12:04:35;26.80;99.90
20498;DHT22;10407;53.238;10.448;2023-06-26T12:07:04;27.00;99.90
20498;DHT22;10407;53.238;10.448;2023-06-26T12:09:45;27.00;99.90
20498;DHT22;10407;53.238;10.448;2023-06-26T12:12:04;27.10;99.90
20498;DHT22;10407;53.238;10.448;2023-06-26T12:14:32;27.10;99.90
20498;DHT22;10407;53.238;10.448;2023-06-26T12:17:11;27.20;98.80
20498;DHT22;10407;53.238;10.448;2023-06-26T12:19:44;27.20;94.90
20498;DHT22;10407;53.238;10.448;2023-06-26T12:22:09;27.80;93.10
20498;DHT22;10407;53.238;10.448;2023-06-26T12:24:38;27.30;92.80
20498;DHT22;10407;53.238;10.448;2023-06-26T12:27:08;27.60;92.30
20498;DHT22;10407;53.238;10.448;2023-06-26T12:29:38;28.00;89.20
20498;DHT22;10407;53.238;10.448;2023-06-26T12:32:10;28.10;85.90
20498;DHT22;10407;53.238;10.448;2023-06-26T12:34:39;28.10;84.00
20498;DHT22;10407;53.238;10.448;2023-06-26T12:37:08;28.60;80.60
20498;DHT22;10407;53.238;10.448;2023-06-26T12:39:56;28.80;76.80
20498;DHT22;10407;53.238;10.448;2023-06-26T12:42:25;28.60;76.90
20498;DHT22;10407;53.238;10.448;2023-06-26T12:44:54;28.80;79.70
20498;DHT22;10407;53.238;10.448;2023-06-26T12:47:25;28.70;78.20
20498;DHT22;10407;53.238;10.448;2023-06-26T12:49:54;28.60;79.10
20498;DHT22;10407;53.238;10.448;2023-06-26T12:52:21;28.60;76.10
20498;DHT22;10407;53.238;10.448;2023-06-26T12:54:53;28.20;76.90
20498;DHT22;10407;53.238;10.448;2023-06-26T12:57:22;28.40;72.70
20498;DHT22;10407;53.238;10.448;2023-06-26T12:59:50;28.20;71.40
20498;DHT22;10407;53.238;10.448;2023-06-26T13:02:17;27.90;70.40
20498;DHT22;10407;53.238;10.448;2023-06-26T13:04:45;28.20;65.90
20498;DHT22;10407;53.238;10.448;2023-06-26T13:07:13;28.40;61.80
20498;DHT22;10407;53.238;10.448;2023-06-26T13:09:40;28.40;59.60
20498;DHT22;10407;53.238;10.448;2023-06-26T13:12:08;28.50;58.70
20498;DHT22;10407;53.238;10.448;2023-06-26T13:14:36;28.40;57.40
20498;DHT22;10407;53.238;10.448;2023-06-26T13:17:05;28.40;57.90
20498;DHT22;10407;53.238;10.448;2023-06-26T13:19:32;27.60;59.30
20498;DHT22;10407;53.238;10.448;2023-06-26T13:22:00;28.00;57.70
20498;DHT22;10407;53.238;10.448;2023-06-26T13:24:27;28.00;57.50
20498;DHT22;10407;53.238;10.448;2023-06-26T13:26:55;28.20;56.80
20498;DHT22;10407;53.238;10.448;2023-06-26T13:29:22;28.10;55.10
20498;DHT22;10407;53.238;10.448;2023-06-26T13:31:50;27.50;57.80
20498;DHT22;10407;53.238;10.448;2023-06-26T13:34:22;27.80;56.50
20498;DHT22;10407;53.238;10.448;2023-06-26T13:36:50;28.00;55.80
20498;DHT22;10407;53.238;10.448;2023-06-26T13:39:18;28.20;53.80
20498;DHT22;10407;53.238;10.448;2023-06-26T13:41:45;28.30;52.20
20498;DHT22;10407;53.238;10.448;2023-06-26T13:44:13;28.30;51.40
20498;DHT22;10407;53.238;10.448;2023-06-26T13:46:41;27.90;52.10
20498;DHT22;10407;53.238;10.448;2023-06-26T13:49:08;28.10;50.50
20498;DHT22;10407;53.238;10.448;2023-06-26T13:51:36;27.90;48.80
20498;DHT22;10407;53.238;10.448;2023-06-26T13:54:04;28.10;48.90
20498;DHT22;10407;53.238;10.448;2023-06-26T13:56:31;28.10;48.40
20498;DHT22;10407;53.238;10.448;2023-06-26T13:58:59;28.00;47.10
20498;DHT22;10407;53.238;10.448;2023-06-26T14:01:29;27.90;46.70
20498;DHT22;10407;53.238;10.448;2023-06-26T14:03:56;28.10;46.60
20498;DHT22;10407;53.238;10.448;2023-06-26T14:06:24;27.90;45.00
20498;DHT22;10407;53.238;10.448;2023-06-26T14:08:51;28.50;43.60
20498;DHT22;10407;53.238;10.448;2023-06-26T14:11:19;28.20;42.10
20498;DHT22;10407;53.238;10.448;2023-06-26T14:13:47;27.90;44.30
20498;DHT22;10407;53.238;10.448;2023-06-26T14:16:15;27.90;42.80
20498;DHT22;10407;53.238;10.448;2023-06-26T14:18:44;28.00;42.60
20498;DHT22;10407;53.238;10.448;2023-06-26T14:21:12;27.90;42.00
20498;DHT22;10407;53.238;10.448;2023-06-26T14:23:39;28.40;41.30
20498;DHT22;10407;53.238;10.448;2023-06-26T14:26:07;28.20;41.40
20498;DHT22;10407;53.238;10.448;2023-06-26T14:28:34;27.80;41.80
20498;DHT22;10407;53.238;10.448;2023-06-26T14:31:02;27.70;41.60
20498;DHT22;10407;53.238;10.448;2023-06-26T14:33:29;26.70;42.60
20498;DHT22;10407;53.238;10.448;2023-06-26T14:35:57;27.30;41.30
20498;DHT22;10407;53.238;10.448;2023-06-26T14:38:24;27.50;40.20
20498;DHT22;10407;53.238;10.448;2023-06-26T14:40:52;27.50;39.50
20498;DHT22;10407;53.238;10.448;2023-06-26T14:43:19;27.70;40.00
20498;DHT22;10407;53.238;10.448;2023-06-26T14:45:47;27.90;38.50
20498;DHT22;10407;53.238;10.448;2023-06-26T14:48:15;27.50;34.40
20498;DHT22;10407;53.238;10.448;2023-06-26T14:50:42;27.60;38.20
20498;DHT22;10407;53.238;10.448;2023-06-26T14:53:10;27.30;38.40
20498;DHT22;10407;53.238;10.448;2023-06-26T14:55:37;27.70;37.50
20498;DHT22;10407;53.238;10.448;2023-06-26T14:58:05;27.60;34.50
20498;DHT22;10407;53.238;10.448;2023-06-26T15:00:32;27.70;35.70
20498;DHT22;10407;53.238;10.448;2023-06-26T15:03:00;28.10;34.50
20498;DHT22;10407;53.238;10.448;2023-06-26T15:05:27;28.10;33.90
20498;DHT22;10407;53.238;10.448;2023-06-26T15:07:55;27.70;34.30
20498;DHT22;10407;53.238;10.448;2023-06-26T15:10:22;27.40;34.90
20498;DHT22;10407;53.238;10.448;2023-06-26T15:12:50;27.10;34.20
20498;DHT22;10407;53.238;10.448;2023-06-26T15:15:18;27.20;34.90
20498;DHT22;10407;53.238;10.448;2023-06-26T15:17:46;27.30;34.20
20498;DHT22;10407;53.238;10.448;2023-06-26T15:20:13;27.50;33.80
20498;DHT22;10407;53.238;10.448;2023-06-26T15:22:41;27.20;33.80
20498;DHT22;10407;53.238;10.448;2023-06-26T15:25:09;27.50;32.70
20498;DHT22;10407;53.238;10.448;2023-06-26T15:27:37;27.60;31.80
20498;DHT22;10407;53.238;10.448;2023-06-26T15:30:05;27.80;31.60
20498;DHT22;10407;53.238;10.448;2023-06-26T15:32:33;27.80;31.00
20498;DHT22;10407;53.238;10.448;2023-06-26T15:35:01;27.60;30.80
20498;DHT22;10407;53.238;10.448;2023-06-26T15:37:28;27.00;30.60
20498;DHT22;10407;53.238;10.448;2023-06-26T15:39:56;27.00;32.70
20498;DHT22;10407;53.238;10.448;2023-06-26T15:45:46;26.70;32.60
20498;DHT22;10407;53.238;10.448;2023-06-26T15:48:13;26.60;32.20
20498;DHT22;10407;53.238;10.448;2023-06-26T15:50:41;26.70;30.70